Time;durP1;ratioP1;P1;durP2;ratioP2;P2;SDS_P1;SDS_P2;PMS_P1;PMS_P2;Temp;Humidity;BMP_temperature;BMP_pressure;BME280_temperature;BME280_humidity;BME280_pressure;Samples;Min_cycle;Max_cycle;Signal;HPM_P1;HPM_P2
2021/04/18 00:00:34;;;;;;;10.40;9.40;;;4.50;99.70;;;;;;5099987;28;20177;-43
2021/04/18 00:03:00;;;;;;;9.50;8.60;;;4.50;99.70;;;;;;5100721;28;20769;-42
2021/04/18 00:05:27;;;;;;;10.17;8.57;;;4.60;99.60;;;;;;5101014;28;20183;-41
2021/04/18 00:08:01;;;;;;;9.60;8.70;;;4.60;99.60;;;;;;5100149;28;20426;-43
2021/04/18 00:10:32;;;;;;;8.87;8.07;;;4.60;99.70;;;;;;5100699;28;20801;-43
2021/04/18 00:12:58;;;;;;;8.80;8.10;;;4.60;99.70;;;;;;5100369;28;20429;-43
2021/04/18 00:15:24;;;;;;;9.17;8.03;;;4.60;99.70;;;;;;5100682;28;20407;-43
2021/04/18 00:17:50;;;;;;;9.23;8.43;;;4.60;99.80;;;;;;5100890;28;20762;-44
2021/04/18 00:20:16;;;;;;;10.53;9.50;;;4.60;99.80;;;;;;5100525;28;20426;-43
2021/04/18 00:22:43;;;;;;;9.43;8.53;;;4.60;99.60;;;;;;5100435;28;20586;-43
2021/04/18 00:25:11;;;;;;;9.63;8.63;;;4.50;99.50;;;;;;5100456;28;20488;-41
2021/04/18 00:27:37;;;;;;;10.30;9.40;;;4.50;99.60;;;;;;5100467;28;20438;-43
2021/04/18 00:30:09;;;;;;;10.13;9.13;;;4.50;99.80;;;;;;5100232;28;20462;-43
2021/04/18 00:32:36;;;;;;;10.70;9.00;;;4.50;99.80;;;;;;5082275;28;20469;-43
2021/04/18 00:35:01;;;;;;;10.90;9.80;;;4.50;99.80;;;;;;5082273;28;20427;-42
2021/04/18 00:37:27;;;;;;;13.20;10.23;;;4.50;99.90;;;;;;5100642;28;20484;-43
2021/04/18 00:39:54;;;;;;;11.10;10.10;;;4.50;99.90;;;;;;5100206;28;20200;-42
2021/04/18 00:42:20;;;;;;;11.30;10.30;;;4.60;99.90;;;;;;5099935;28;20172;-43
2021/04/18 00:44:46;;;;;;;13.17;9.67;;;4.60;99.80;;;;;;5100304;28;20476;-42
2021/04/18 00:47:12;;;;;;;11.20;10.10;;;4.50;99.60;;;;;;5099796;28;20422;-43
2021/04/18 00:49:38;;;;;;;9.57;8.63;;;4.50;99.50;;;;;;5100096;28;20188;-43
2021/04/18 00:52:05;;;;;;;11.33;9.30;;;4.50;99.50;;;;;;5100247;28;20422;-43
2021/04/18 00:54:31;;;;;;;10.33;9.33;;;4.50;99.50;;;;;;5099946;28;20568;-42
2021/04/18 00:56:56;;;;;;;10.50;9.50;;;4.40;99.50;;;;;;5099836;28;20919;-43
2021/04/18 00:59:22;;;;;;;10.40;9.37;;;4.40;99.40;;;;;;5081916;28;20558;-43
2021/04/18 01:01:48;;;;;;;11.10;10.00;;;4.40;99.40;;;;;;5082451;28;20414;-42
2021/04/18 01:04:14;;;;;;;10.70;9.67;;;4.40;99.40;;;;;;5099851;28;20180;-42
2021/04/18 01:06:40;;;;;;;9.50;8.60;;;4.40;99.30;;;;;;5099120;28;20428;-42
2021/04/18 01:09:06;;;;;;;10.83;8.97;;;4.30;99.30;;;;;;5099473;28;20232;-44
2021/04/18 01:11:32;;;;;;;10.47;9.47;;;4.30;99.40;;;;;;5098640;28;20501;-43
2021/04/18 01:13:57;;;;;;;8.83;8.03;;;4.30;99.40;;;;;;5099742;28;20245;-43
2021/04/18 01:16:23;;;;;;;12.40;10.00;;;4.30;99.20;;;;;;5099774;28;20422;-42
2021/04/18 01:18:49;;;;;;;10.07;8.83;;;4.30;99.30;;;;;;5099079;28;20637;-42
2021/04/18 01:21:15;;;;;;;10.30;9.03;;;4.30;99.20;;;;;;5099113;28;20198;-43
2021/04/18 01:23:41;;;;;;;11.60;8.30;;;4.30;99.20;;;;;;5099486;28;20191;-42
2021/04/18 01:26:08;;;;;;;12.10;10.63;;;4.30;99.30;;;;;;5099150;28;20415;-43
2021/04/18 01:28:33;;;;;;;10.20;9.30;;;4.30;99.40;;;;;;5099348;28;20476;-43
2021/04/18 01:31:04;;;;;;;9.67;8.67;;;4.30;99.50;;;;;;5099218;28;20502;-43
2021/04/18 01:33:30;;;;;;;10.17;8.67;;;4.30;99.40;;;;;;5099261;28;20176;-43
2021/04/18 01:35:57;;;;;;;10.27;9.33;;;4.30;99.40;;;;;;5099354;28;20445;-44
2021/04/18 01:38:23;;;;;;;11.70;10.23;;;4.30;99.30;;;;;;5081114;28;20510;-43
2021/04/18 01:40:49;;;;;;;10.50;9.40;;;4.20;99.20;;;;;;5098696;28;20825;-41
2021/04/18 01:43:16;;;;;;;10.33;9.23;;;4.20;99.40;;;;;;5098750;28;20193;-44
2021/04/18 01:45:49;;;;;;;11.90;9.10;;;4.30;99.40;;;;;;5098648;28;20454;-43
2021/04/18 01:48:15;;;;;;;10.13;9.13;;;4.30;99.40;;;;;;5098723;28;20851;-43
2021/04/18 01:50:43;;;;;;;10.27;9.30;;;4.30;99.50;;;;;;5099220;28;20591;-42
2021/04/18 01:53:09;;;;;;;10.33;9.20;;;4.30;99.50;;;;;;5098847;28;20839;-44
2021/04/18 01:55:35;;;;;;;10.53;9.43;;;4.30;99.60;;;;;;5098129;28;20429;-43
2021/04/18 01:58:02;;;;;;;10.47;9.30;;;4.30;99.50;;;;;;5098663;28;20521;-43
2021/04/18 02:00:28;;;;;;;10.27;9.27;;;4.30;99.50;;;;;;5098792;28;20425;-41
2021/04/18 02:02:53;;;;;;;10.67;9.00;;;4.30;99.40;;;;;;5098477;28;20422;-43
2021/04/18 02:05:20;;;;;;;10.87;9.83;;;4.30;99.40;;;;;;5097967;28;20475;-42
2021/04/18 02:07:46;;;;;;;9.60;8.70;;;4.30;99.40;;;;;;5098255;28;20188;-41
2021/04/18 02:10:13;;;;;;;10.90;9.80;;;4.30;99.40;;;;;;5098059;28;20949;-41
2021/04/18 02:12:38;;;;;;;12.57;9.67;;;4.30;99.30;;;;;;5098090;28;20445;-44
2021/04/18 02:15:05;;;;;;;10.70;9.70;;;4.40;99.40;;;;;;5098163;28;20411;-41
2021/04/18 02:17:31;;;;;;;10.60;9.63;;;4.40;99.30;;;;;;5097987;28;20229;-43
2021/04/18 02:19:57;;;;;;;11.60;10.40;;;4.30;99.30;;;;;;5098504;28;20428;-43
2021/04/18 02:22:23;;;;;;;11.83;10.33;;;4.30;99.30;;;;;;5097224;28;20551;-43
2021/04/18 02:24:49;;;;;;;11.37;10.20;;;4.30;99.30;;;;;;5097692;28;20187;-43
2021/04/18 02:27:14;;;;;;;11.13;9.97;;;4.30;99.20;;;;;;5098256;28;20175;-43
2021/04/18 02:29:40;;;;;;;10.33;9.40;;;4.30;99.40;;;;;;5098146;28;20425;-43
2021/04/18 02:32:06;;;;;;;11.30;10.20;;;4.30;99.50;;;;;;5098058;28;20263;-43
2021/04/18 02:34:32;;;;;;;9.93;9.00;;;4.20;99.50;;;;;;5080430;28;20191;-43
2021/04/18 02:36:58;;;;;;;7.57;6.73;;;4.20;99.60;;;;;;5096992;28;20415;-44
2021/04/18 02:39:24;;;;;;;9.80;7.27;;;4.30;99.90;;;;;;5097216;28;20487;-44
2021/04/18 02:41:49;;;;;;;15.27;12.83;;;4.80;99.90;;;;;;5097457;28;20233;-43
2021/04/18 02:44:16;;;;;;;13.80;12.40;;;5.40;99.90;;;;;;5097457;28;20191;-43
2021/04/18 02:46:41;;;;;;;13.27;10.97;;;5.50;99.90;;;;;;5097440;28;20259;-43
2021/04/18 02:49:07;;;;;;;11.03;9.93;;;5.40;99.90;;;;;;5096903;28;20784;-43
2021/04/18 02:51:33;;;;;;;10.17;9.20;;;5.30;99.90;;;;;;5097465;28;20590;-42
2021/04/18 02:54:00;;;;;;;11.70;10.50;;;5.20;99.20;;;;;;5097905;28;20255;-43
2021/04/18 02:56:27;;;;;;;11.27;10.27;;;5.00;98.70;;;;;;5097828;28;20630;-43
2021/04/18 02:58:52;;;;;;;11.80;10.70;;;4.90;98.50;;;;;;5097568;28;20486;-42
2021/04/18 03:01:18;;;;;;;11.20;10.10;;;4.90;98.60;;;;;;5097732;28;20829;-43
2021/04/18 03:03:44;;;;;;;12.80;11.60;;;4.80;98.60;;;;;;5097445;28;20251;-42
2021/04/18 03:06:10;;;;;;;12.20;11.00;;;4.70;98.70;;;;;;5097956;28;20497;-42
2021/04/18 03:08:36;;;;;;;12.93;11.60;;;4.70;98.70;;;;;;5097801;28;20704;-43
2021/04/18 03:11:02;;;;;;;12.27;11.03;;;4.60;98.90;;;;;;5097691;28;20469;-43
2021/04/18 03:13:28;;;;;;;11.97;10.97;;;4.50;99.10;;;;;;5097510;28;20165;-43
2021/04/18 03:15:54;;;;;;;13.30;11.37;;;4.50;99.30;;;;;;5097601;28;20402;-43
2021/04/18 03:18:19;;;;;;;11.03;10.00;;;4.40;99.20;;;;;;5097241;28;20466;-43
2021/04/18 03:20:45;;;;;;;11.57;10.47;;;4.40;99.20;;;;;;5097759;28;20513;-43
2021/04/18 03:23:11;;;;;;;12.43;11.33;;;4.40;99.40;;;;;;5079446;28;20185;-43
2021/04/18 03:25:37;;;;;;;13.03;11.73;;;4.40;99.60;;;;;;5097799;28;20210;-42
2021/04/18 03:28:04;;;;;;;13.03;10.80;;;4.40;99.60;;;;;;5097266;28;20875;-43
2021/04/18 03:30:32;;;;;;;13.27;11.93;;;4.40;99.70;;;;;;5097093;28;20887;-43
2021/04/18 03:32:59;;;;;;;13.10;11.67;;;4.40;99.70;;;;;;5097424;28;20514;-43
2021/04/18 03:35:25;;;;;;;13.67;12.10;;;4.40;99.70;;;;;;5100348;28;20405;-43
2021/04/18 03:37:51;;;;;;;12.60;11.30;;;4.40;99.70;;;;;;5101351;28;20419;-42
2021/04/18 03:40:17;;;;;;;13.00;11.67;;;4.40;99.70;;;;;;5101498;28;20420;-42
2021/04/18 03:42:43;;;;;;;14.57;13.10;;;4.40;99.80;;;;;;5083126;28;20192;-43
2021/04/18 03:45:10;;;;;;;12.30;11.00;;;4.40;99.80;;;;;;5100938;28;20662;-41
2021/04/18 03:47:36;;;;;;;12.77;11.00;;;4.40;99.70;;;;;;5083673;28;20418;-43
2021/04/18 03:50:04;;;;;;;14.23;11.10;;;4.40;99.70;;;;;;5101265;28;20741;-43
2021/04/18 03:52:30;;;;;;;12.40;11.30;;;4.40;99.60;;;;;;5100637;28;20181;-44
2021/04/18 03:54:55;;;;;;;12.80;11.60;;;4.40;99.60;;;;;;5100949;28;20426;-43
2021/04/18 03:57:22;;;;;;;12.03;10.90;;;4.40;99.60;;;;;;5100587;28;20719;-43
2021/04/18 03:59:48;;;;;;;12.13;10.83;;;4.40;99.40;;;;;;5100834;28;20179;-43
2021/04/18 04:02:14;;;;;;;11.93;10.83;;;4.30;99.30;;;;;;5100929;28;20521;-43
2021/04/18 04:04:40;;;;;;;12.30;11.10;;;4.30;99.30;;;;;;5101024;28;20835;-43
2021/04/18 04:07:06;;;;;;;12.10;11.03;;;4.30;99.40;;;;;;5100843;28;20513;-42
2021/04/18 04:09:32;;;;;;;12.93;11.57;;;4.30;99.30;;;;;;5100425;28;20176;-43
2021/04/18 04:11:58;;;;;;;13.77;12.30;;;4.20;99.30;;;;;;5100661;28;20462;-43
2021/04/18 04:14:24;;;;;;;13.53;12.13;;;4.20;99.30;;;;;;5100682;28;20181;-42
2021/04/18 04:16:49;;;;;;;15.27;13.73;;;4.20;99.40;;;;;;5100350;28;20471;-43
2021/04/18 04:19:15;;;;;;;14.00;12.60;;;4.20;99.50;;;;;;5100330;28;20183;-43
2021/04/18 04:21:41;;;;;;;14.73;13.23;;;4.20;99.50;;;;;;5100468;28;20184;-43
2021/04/18 04:24:07;;;;;;;14.60;13.20;;;4.20;99.60;;;;;;5100640;28;20179;-43
2021/04/18 04:26:33;;;;;;;17.43;14.73;;;4.20;99.60;;;;;;5100806;28;20813;-43
2021/04/18 04:28:59;;;;;;;14.93;13.33;;;4.20;99.60;;;;;;5100386;28;20422;-42
2021/04/18 04:31:25;;;;;;;14.50;13.10;;;4.20;99.60;;;;;;5099988;28;20469;-43
2021/04/18 04:33:51;;;;;;;14.30;12.90;;;4.20;99.50;;;;;;5100331;28;20431;-43
2021/04/18 04:36:16;;;;;;;15.53;13.93;;;4.20;99.80;;;;;;5100433;28;20415;-43
2021/04/18 04:38:42;;;;;;;14.63;13.23;;;4.20;99.50;;;;;;5099858;28;20176;-43
2021/04/18 04:41:08;;;;;;;14.70;13.30;;;4.20;99.40;;;;;;5100388;28;20204;-43
2021/04/18 04:43:34;;;;;;;14.07;12.87;;;4.20;99.40;;;;;;5100015;28;20176;-39
2021/04/18 04:46:00;;;;;;;15.97;14.37;;;4.20;99.40;;;;;;5098880;28;20493;-42
2021/04/18 04:48:26;;;;;;;15.27;13.70;;;4.20;99.50;;;;;;5100055;28;20678;-41
2021/04/18 04:50:52;;;;;;;15.00;13.53;;;4.20;99.60;;;;;;5099906;28;20473;-41
2021/04/18 04:53:17;;;;;;;15.73;14.17;;;4.20;99.70;;;;;;5099783;28;20581;-41
2021/04/18 04:55:46;;;;;;;16.13;14.40;;;4.20;99.70;;;;;;5099177;28;20442;-40
2021/04/18 04:58:11;;;;;;;16.50;13.87;;;4.20;99.80;;;;;;5099836;28;20246;-40
2021/04/18 05:00:37;;;;;;;14.00;12.60;;;4.20;99.80;;;;;;5099789;28;20431;-41
2021/04/18 05:03:03;;;;;;;15.50;14.10;;;4.20;99.80;;;;;;5099086;28;20566;-42
2021/04/18 05:05:30;;;;;;;14.77;13.27;;;4.20;99.70;;;;;;5081412;28;20460;-41
2021/04/18 05:07:55;;;;;;;15.13;13.53;;;4.30;99.80;;;;;;5099542;28;20494;-42
2021/04/18 05:10:22;;;;;;;14.83;13.43;;;4.30;99.80;;;;;;5099271;28;20818;-42
2021/04/18 05:12:47;;;;;;;13.90;12.50;;;4.30;99.90;;;;;;5099748;28;20447;-42
2021/04/18 05:15:13;;;;;;;15.97;14.37;;;4.30;99.90;;;;;;5099366;28;20410;-42
2021/04/18 05:17:39;;;;;;;14.90;13.47;;;4.30;99.90;;;;;;5099198;28;20293;-42
2021/04/18 05:20:06;;;;;;;16.93;15.13;;;4.40;99.90;;;;;;5099063;28;20747;-41
2021/04/18 05:22:31;;;;;;;14.80;13.30;;;4.40;99.80;;;;;;5099113;28;20839;-42
2021/04/18 05:24:57;;;;;;;14.80;13.50;;;4.50;99.80;;;;;;5099078;28;20411;-42
2021/04/18 05:27:23;;;;;;;15.40;13.83;;;4.60;99.80;;;;;;5099057;28;20443;-41
2021/04/18 05:29:49;;;;;;;14.20;12.90;;;4.60;99.70;;;;;;5099153;28;20180;-41
2021/04/18 05:32:14;;;;;;;14.30;12.90;;;4.70;99.50;;;;;;5099191;28;20850;-42
2021/04/18 05:34:40;;;;;;;15.57;14.07;;;4.70;99.40;;;;;;5098900;28;20303;-42
2021/04/18 05:37:06;;;;;;;15.97;14.37;;;4.70;99.30;;;;;;5098507;28;20567;-41
2021/04/18 05:39:32;;;;;;;15.20;13.80;;;4.80;99.30;;;;;;5098588;28;20430;-42
2021/04/18 05:41:58;;;;;;;16.67;14.93;;;4.80;99.40;;;;;;5098863;28;20176;-40
2021/04/18 05:44:24;;;;;;;17.77;14.70;;;4.90;99.30;;;;;;5098616;28;20454;-42
2021/04/18 05:46:49;;;;;;;15.07;13.57;;;5.00;99.10;;;;;;5099044;28;20169;-42
2021/04/18 05:49:15;;;;;;;15.70;14.27;;;5.00;99.00;;;;;;5098573;28;20425;-42
2021/04/18 05:51:41;;;;;;;15.30;13.90;;;5.10;98.90;;;;;;5080557;28;20208;-42
2021/04/18 05:54:08;;;;;;;15.10;13.70;;;5.10;98.80;;;;;;5099003;28;20497;-42
2021/04/18 05:56:34;;;;;;;14.90;13.40;;;5.10;98.70;;;;;;5080794;28;20183;-42
2021/04/18 05:59:01;;;;;;;15.23;13.67;;;5.00;98.40;;;;;;5098597;28;20420;-42
2021/04/18 06:01:27;;;;;;;15.70;14.20;;;5.10;98.50;;;;;;5098436;28;20414;-40
2021/04/18 06:03:56;;;;;;;15.60;14.10;;;5.10;98.50;;;;;;5081694;28;20500;-42
2021/04/18 06:06:23;;;;;;;16.00;14.33;;;5.20;98.50;;;;;;5099291;28;20454;-41
2021/04/18 06:08:49;;;;;;;14.50;13.10;;;5.10;98.40;;;;;;5099570;28;20479;-41
2021/04/18 06:11:15;;;;;;;17.33;15.47;;;5.10;98.40;;;;;;5098700;28;20463;-42
2021/04/18 06:13:42;;;;;;;17.30;15.60;;;5.10;98.60;;;;;;5098928;28;20448;-42
2021/04/18 06:16:08;;;;;;;14.27;12.77;;;5.20;98.70;;;;;;5099276;28;20422;-40
2021/04/18 06:18:34;;;;;;;16.87;14.97;;;5.30;98.70;;;;;;5098815;28;20477;-40
2021/04/18 06:21:00;;;;;;;15.13;13.73;;;5.30;98.50;;;;;;5080914;28;20418;-40
2021/04/18 06:23:26;;;;;;;17.07;14.30;;;5.40;98.10;;;;;;5098545;28;20479;-40
2021/04/18 06:25:52;;;;;;;14.77;13.27;;;5.40;97.90;;;;;;5098823;28;20427;-42
2021/04/18 06:28:20;;;;;;;15.60;12.90;;;5.50;97.90;;;;;;5098985;28;20429;-39
2021/04/18 06:30:45;;;;;;;13.60;12.47;;;5.50;97.70;;;;;;5098644;28;20560;-42
2021/04/18 06:33:12;;;;;;;14.47;13.17;;;5.60;97.60;;;;;;5098624;28;20788;-42
2021/04/18 06:35:38;;;;;;;14.13;12.73;;;5.70;97.30;;;;;;5098704;28;20187;-40
2021/04/18 06:38:04;;;;;;;14.33;13.03;;;5.80;97.30;;;;;;5098692;28;20725;-41
2021/04/18 06:40:30;;;;;;;13.30;12.10;;;5.80;97.10;;;;;;5098557;28;20242;-41
2021/04/18 06:42:58;;;;;;;15.50;14.10;;;5.90;96.90;;;;;;5081294;28;20723;-42
2021/04/18 06:45:24;;;;;;;14.37;12.87;;;6.00;96.90;;;;;;5098967;28;20555;-41
2021/04/18 06:47:50;;;;;;;14.10;12.83;;;5.90;96.80;;;;;;5080198;28;20441;-42
2021/04/18 06:50:17;;;;;;;13.40;12.23;;;6.00;97.00;;;;;;5080475;28;20518;-42
2021/04/18 06:52:43;;;;;;;13.87;12.63;;;6.10;97.30;;;;;;5098109;28;20859;-42
2021/04/18 06:55:10;;;;;;;12.67;11.47;;;6.20;96.80;;;;;;5097367;28;20430;-42
2021/04/18 06:57:36;;;;;;;16.60;15.00;;;6.30;96.60;;;;;;5097619;28;20429;-41
2021/04/18 07:00:07;;;;;;;13.30;11.80;;;6.40;96.40;;;;;;5096463;28;20505;-42
2021/04/18 07:02:34;;;;;;;14.03;12.60;;;6.40;96.10;;;;;;5097948;28;20422;-42
2021/04/18 07:05:04;;;;;;;13.60;12.40;;;6.50;96.20;;;;;;5098273;28;20418;-42
2021/04/18 07:07:32;;;;;;;14.47;12.97;;;6.60;96.20;;;;;;5098066;28;20425;-42
2021/04/18 07:09:58;;;;;;;12.97;11.80;;;6.70;96.10;;;;;;5082950;28;20828;-42
2021/04/18 07:12:29;;;;;;;12.63;11.33;;;6.80;96.10;;;;;;5102256;28;20750;-42
2021/04/18 07:14:55;;;;;;;14.00;12.50;;;7.00;95.90;;;;;;5102373;28;20410;-41
2021/04/18 07:17:21;;;;;;;13.47;12.07;;;7.10;95.30;;;;;;5102386;28;20485;-42
2021/04/18 07:19:51;;;;;;;13.27;11.67;;;7.30;95.10;;;;;;5101889;28;20406;-42
2021/04/18 07:22:19;;;;;;;13.27;11.87;;;7.30;94.40;;;;;;5084880;28;20422;-41
2021/04/18 07:24:48;;;;;;;14.07;12.67;;;7.30;94.40;;;;;;5102646;28;20430;-42
2021/04/18 07:27:15;;;;;;;14.43;13.03;;;7.50;94.20;;;;;;5101349;28;20433;-42
2021/04/18 07:29:40;;;;;;;14.67;13.17;;;7.60;94.00;;;;;;5101150;28;20898;-40
2021/04/18 07:32:21;;;;;;;13.63;11.30;;;7.70;93.80;;;;;;5100923;28;20430;-42
2021/04/18 07:34:47;;;;;;;13.17;11.77;;;7.70;93.30;;;;;;5101758;28;20176;-40
2021/04/18 07:37:17;;;;;;;14.20;12.17;;;7.80;93.20;;;;;;5101430;28;20843;-41
2021/04/18 07:39:53;;;;;;;15.17;11.93;;;7.80;93.30;;;;;;5099795;28;20414;-42
2021/04/18 07:42:45;;;;;;;14.07;12.67;;;7.70;92.70;;;;;;5101563;28;20422;-42
2021/04/18 07:45:14;;;;;;;14.20;12.70;;;7.60;92.70;;;;;;5099496;28;20491;-42
2021/04/18 07:47:43;;;;;;;13.10;11.60;;;7.70;92.60;;;;;;5101682;28;20430;-42
2021/04/18 07:50:20;;;;;;;11.13;9.83;;;7.80;92.80;;;;;;5101257;28;20472;-41
2021/04/18 07:52:48;;;;;;;14.50;11.17;;;8.20;92.70;;;;;;5101683;28;20422;-41
2021/04/18 07:55:16;;;;;;;14.30;12.00;;;8.30;91.40;;;;;;5101673;28;20479;-39
2021/04/18 07:57:42;;;;;;;11.43;10.33;;;8.50;91.30;;;;;;5101089;28;20423;-42
2021/04/18 08:00:12;;;;;;;13.87;11.67;;;8.60;90.60;;;;;;5100767;28;20433;-41
2021/04/18 08:02:39;;;;;;;11.43;10.23;;;8.70;90.90;;;;;;5100783;28;20511;-42
2021/04/18 08:05:08;;;;;;;13.30;12.00;;;8.80;90.30;;;;;;5083057;28;20434;-41
2021/04/18 08:07:57;;;;;;;13.77;10.97;;;8.70;90.20;;;;;;5083255;28;20487;-41
2021/04/18 08:10:40;;;;;;;12.03;10.60;;;8.70;90.20;;;;;;5101349;28;20470;-41
2021/04/18 08:13:32;;;;;;;13.50;10.50;;;8.60;90.00;;;;;;5101705;28;20762;-41
2021/04/18 08:16:04;;;;;;;17.90;12.27;;;8.40;90.30;;;;;;5097652;28;20457;-41
2021/04/18 08:18:41;;;;;;;15.77;13.90;;;8.30;90.80;;;;;;5100608;28;20507;-39
2021/04/18 08:21:37;;;;;;;15.40;11.70;;;8.30;91.10;;;;;;5100626;28;20430;-40
2021/04/18 08:24:06;;;;;;;13.40;11.67;;;8.10;91.10;;;;;;5101001;28;20422;-42
2021/04/18 08:26:34;;;;;;;16.27;11.87;;;8.20;91.10;;;;;;5100942;28;20419;-41
2021/04/18 08:29:04;;;;;;;14.50;12.00;;;8.10;91.20;;;;;;5100821;28;20430;-41
2021/04/18 08:31:52;;;;;;;16.23;12.00;;;8.20;91.80;;;;;;5100133;28;20494;-41
2021/04/18 08:34:29;;;;;;;16.67;12.60;;;8.50;92.10;;;;;;5100007;28;20418;-40
2021/04/18 08:36:56;;;;;;;18.20;12.70;;;8.60;90.90;;;;;;5101116;28;20422;-42
2021/04/18 08:39:24;;;;;;;13.17;11.57;;;8.60;90.80;;;;;;5101257;28;20432;-41
2021/04/18 08:42:02;;;;;;;13.77;10.93;;;8.60;91.10;;;;;;5101051;28;20414;-41
2021/04/18 08:44:43;;;;;;;13.73;10.90;;;8.60;91.20;;;;;;5082722;28;20445;-42
2021/04/18 08:47:13;;;;;;;17.93;12.93;;;8.50;91.10;;;;;;5100552;28;20433;-41
2021/04/18 08:49:39;;;;;;;12.93;11.43;;;8.40;91.50;;;;;;5100615;28;20423;-41
2021/04/18 08:52:11;;;;;;;13.33;11.93;;;8.40;92.10;;;;;;5099875;28;20535;-42
2021/04/18 08:54:41;;;;;;;12.87;11.63;;;8.40;91.90;;;;;;5099999;28;20457;-41
2021/04/18 08:57:29;;;;;;;13.47;12.10;;;8.40;91.40;;;;;;5100182;28;20480;-38
2021/04/18 08:59:57;;;;;;;14.63;13.07;;;8.30;91.00;;;;;;5099389;28;20421;-40
2021/04/18 09:02:27;;;;;;;14.93;12.53;;;8.10;91.10;;;;;;5100071;28;20415;-41
2021/04/18 09:04:56;;;;;;;13.30;11.93;;;8.00;91.90;;;;;;5100359;28;20913;-42
2021/04/18 09:07:29;;;;;;;12.23;10.80;;;8.00;92.10;;;;;;5099804;28;20485;-41
2021/04/18 09:09:59;;;;;;;12.73;11.43;;;8.00;91.70;;;;;;5081641;28;20419;-42
2021/04/18 09:12:25;;;;;;;12.27;10.67;;;8.10;91.70;;;;;;5099502;28;20480;-41
2021/04/18 09:14:51;;;;;;;13.60;11.47;;;8.20;91.80;;;;;;5099666;28;20740;-42
2021/04/18 09:17:17;;;;;;;13.10;11.70;;;8.30;92.00;;;;;;5099494;28;20236;-42
2021/04/18 09:19:53;;;;;;;11.17;10.17;;;8.50;91.80;;;;;;5099754;28;20488;-41
2021/04/18 09:22:27;;;;;;;12.27;11.00;;;8.90;90.80;;;;;;5099863;28;20422;-42
2021/04/18 09:24:54;;;;;;;11.53;10.43;;;9.20;90.40;;;;;;5099655;28;20414;-42
2021/04/18 09:27:27;;;;;;;11.23;9.77;;;9.40;90.00;;;;;;5099116;28;20430;-42
2021/04/18 09:29:58;;;;;;;11.23;9.63;;;9.70;88.30;;;;;;5099090;28;20422;-42
2021/04/18 09:32:26;;;;;;;10.97;9.97;;;9.60;88.10;;;;;;5081188;28;20579;-42
2021/04/18 09:34:53;;;;;;;12.20;10.43;;;9.70;87.70;;;;;;5099925;28;20422;-42
2021/04/18 09:37:40;;;;;;;11.40;10.30;;;9.60;87.70;;;;;;5099571;28;20518;-42
2021/04/18 09:40:15;;;;;;;15.03;10.90;;;9.70;87.00;;;;;;5081681;28;20848;-42
2021/04/18 09:42:44;;;;;;;11.53;9.80;;;9.70;86.20;;;;;;5080399;28;20452;-39
2021/04/18 09:45:20;;;;;;;13.20;10.73;;;9.80;85.30;;;;;;5096052;28;20939;-43
2021/04/18 09:47:51;;;;;;;12.77;10.77;;;9.80;85.20;;;;;;5079574;28;20426;-42
2021/04/18 09:50:22;;;;;;;13.37;10.70;;;10.00;84.50;;;;;;5080294;28;20466;-41
2021/04/18 09:52:49;;;;;;;11.07;9.87;;;10.30;84.10;;;;;;5097999;28;20438;-42
2021/04/18 09:55:24;;;;;;;12.17;10.37;;;10.40;81.80;;;;;;5097930;28;20430;-41
2021/04/18 09:57:51;;;;;;;10.57;9.50;;;10.50;81.60;;;;;;5097592;28;20410;-42
2021/04/18 10:00:22;;;;;;;13.10;11.70;;;10.60;81.10;;;;;;5096970;28;20433;-42
2021/04/18 10:03:01;;;;;;;11.07;9.50;;;10.10;80.90;;;;;;5098207;28;20426;-42
2021/04/18 10:05:28;;;;;;;11.17;10.07;;;10.20;81.10;;;;;;5098140;28;20427;-42
2021/04/18 10:08:27;;;;;;;12.50;9.93;;;10.30;81.50;;;;;;5098233;28;20468;-41
2021/04/18 10:11:05;;;;;;;11.80;10.10;;;10.40;81.20;;;;;;5043658;28;20489;-42
2021/04/18 10:13:43;;;;;;;13.40;9.93;;;10.40;81.10;;;;;;5098882;28;20456;-43
2021/04/18 10:16:11;;;;;;;12.20;10.37;;;10.50;80.90;;;;;;5097897;28;20422;-40
2021/04/18 10:18:39;;;;;;;12.30;10.50;;;10.60;81.80;;;;;;5080692;28;20478;-41
2021/04/18 10:21:22;;;;;;;12.63;10.00;;;10.70;79.00;;;;;;5098092;28;20448;-43
2021/04/18 10:23:50;;;;;;;14.90;9.70;;;10.40;77.40;;;;;;5097092;28;20487;-41
2021/04/18 10:26:20;;;;;;;10.23;8.90;;;10.50;78.80;;;;;;5079755;28;20689;-42
2021/04/18 10:28:47;;;;;;;13.13;10.27;;;10.50;78.70;;;;;;5097225;28;20512;-41
2021/04/18 10:31:14;;;;;;;12.73;11.33;;;10.50;78.30;;;;;;5096623;28;20466;-43
2021/04/18 10:33:39;;;;;;;12.93;11.70;;;10.50;78.70;;;;;;5095978;28;20487;-43
2021/04/18 10:36:06;;;;;;;13.07;9.90;;;10.40;77.10;;;;;;5097474;28;20509;-43
2021/04/18 10:38:32;;;;;;;12.00;10.80;;;10.40;78.10;;;;;;5098234;28;20172;-42
2021/04/18 10:40:58;;;;;;;14.60;11.10;;;10.00;77.90;;;;;;5098296;28;20678;-42
2021/04/18 10:43:24;;;;;;;11.63;10.43;;;9.70;79.80;;;;;;5096825;28;20184;-41
2021/04/18 10:45:50;;;;;;;11.20;10.10;;;9.90;81.40;;;;;;5096828;28;20207;-42
2021/04/18 10:48:15;;;;;;;12.87;11.40;;;10.10;80.20;;;;;;5097507;28;20362;-42
2021/04/18 10:50:41;;;;;;;14.70;10.27;;;10.30;79.40;;;;;;5097277;28;20553;-39
2021/04/18 10:53:07;;;;;;;10.07;8.97;;;10.00;78.50;;;;;;5080551;28;20559;-42
2021/04/18 10:55:33;;;;;;;14.40;9.90;;;10.30;78.70;;;;;;5098289;28;20177;-43
2021/04/18 10:57:59;;;;;;;15.60;12.77;;;10.40;77.30;;;;;;5098484;28;20195;-42
2021/04/18 11:00:27;;;;;;;16.30;12.73;;;10.10;77.40;;;;;;5096869;28;20426;-42
2021/04/18 11:02:53;;;;;;;16.03;12.53;;;10.30;77.60;;;;;;5096933;28;20730;-41
2021/04/18 11:05:19;;;;;;;11.67;9.83;;;9.90;77.70;;;;;;5097508;28;20456;-42
2021/04/18 11:07:44;;;;;;;12.57;10.10;;;9.60;79.40;;;;;;5098635;28;20180;-42
2021/04/18 11:10:11;;;;;;;17.17;9.63;;;9.70;80.00;;;;;;5096626;28;20523;-40
2021/04/18 11:12:37;;;;;;;13.23;10.60;;;9.80;80.20;;;;;;5098340;28;20438;-42
2021/04/18 11:15:05;;;;;;;10.10;8.80;;;9.70;80.10;;;;;;5097246;28;20501;-43
2021/04/18 11:17:33;;;;;;;10.80;9.60;;;9.80;80.30;;;;;;5092240;28;20485;-43
2021/04/18 11:19:59;;;;;;;13.10;10.00;;;10.00;79.10;;;;;;5097371;28;20433;-42
2021/04/18 11:22:25;;;;;;;15.03;10.07;;;10.00;80.00;;;;;;5098089;28;20829;-43
2021/04/18 11:24:52;;;;;;;10.50;9.33;;;10.20;79.70;;;;;;5097827;28;20423;-43
2021/04/18 11:27:18;;;;;;;10.80;8.87;;;10.20;77.70;;;;;;5098117;28;20437;-41
2021/04/18 11:29:43;;;;;;;11.83;9.70;;;10.40;77.00;;;;;;5095419;28;20861;-40
2021/04/18 11:32:11;;;;;;;11.10;9.87;;;10.50;76.90;;;;;;5096906;28;20504;-43
2021/04/18 11:34:37;;;;;;;10.50;9.40;;;10.60;76.50;;;;;;5097361;28;20544;-43
2021/04/18 11:37:04;;;;;;;15.60;9.37;;;10.70;76.20;;;;;;5097644;28;20418;-43
2021/04/18 11:39:30;;;;;;;13.40;10.20;;;10.90;75.90;;;;;;5097334;28;20410;-41
2021/04/18 11:41:56;;;;;;;9.93;8.40;;;11.00;75.90;;;;;;5096600;28;20427;-43
2021/04/18 11:44:22;;;;;;;9.47;7.47;;;11.20;75.90;;;;;;5096702;28;20839;-41
2021/04/18 11:46:48;;;;;;;8.03;6.40;;;11.40;77.50;;;;;;5096669;28;20184;-42
2021/04/18 11:49:15;;;;;;;9.03;8.13;;;11.90;84.50;;;;;;5097379;28;20670;-41
2021/04/18 11:51:41;;;;;;;8.73;7.67;;;12.40;76.90;;;;;;5096963;28;20721;-42
2021/04/18 11:54:09;;;;;;;9.90;8.80;;;12.80;74.70;;;;;;5096294;28;20418;-41
2021/04/18 11:56:35;;;;;;;9.90;7.60;;;12.90;68.90;;;;;;5082310;28;20419;-42
2021/04/18 11:59:01;;;;;;;7.53;6.73;;;13.00;69.20;;;;;;5100711;28;20418;-41
2021/04/18 12:01:27;;;;;;;8.37;7.00;;;13.10;69.50;;;;;;5100533;28;20417;-41
2021/04/18 12:03:53;;;;;;;8.80;8.00;;;13.40;70.30;;;;;;5100801;28;20432;-42
2021/04/18 12:06:20;;;;;;;7.47;6.67;;;13.80;68.60;;;;;;5066655;28;20430;-41
2021/04/18 12:08:46;;;;;;;7.37;6.60;;;14.00;68.30;;;;;;5100676;28;20430;-39
2021/04/18 12:11:12;;;;;;;8.30;7.00;;;14.30;68.50;;;;;;5100532;28;20461;-42
2021/04/18 12:13:37;;;;;;;9.07;8.17;;;14.50;66.00;;;;;;5100070;28;20422;-44
2021/04/18 12:16:04;;;;;;;10.83;7.90;;;14.60;63.20;;;;;;5101222;28;20418;-43
2021/04/18 12:18:30;;;;;;;9.47;8.57;;;14.60;61.30;;;;;;5100300;28;20772;-44
2021/04/18 12:20:55;;;;;;;11.07;9.40;;;14.50;61.70;;;;;;5100214;28;20696;-41
2021/04/18 12:23:21;;;;;;;12.10;9.10;;;14.10;59.10;;;;;;5100175;28;20426;-42
2021/04/18 12:25:47;;;;;;;9.10;8.20;;;14.00;59.30;;;;;;5101641;28;20266;-43
2021/04/18 12:28:13;;;;;;;9.50;8.50;;;13.80;59.90;;;;;;5083255;28;20493;-42
2021/04/18 12:30:40;;;;;;;10.53;9.40;;;13.30;60.60;;;;;;5100571;28;20247;-42
2021/04/18 12:33:06;;;;;;;10.40;9.33;;;13.30;61.20;;;;;;5100639;28;20423;-41
2021/04/18 12:35:34;;;;;;;9.97;9.00;;;13.00;61.50;;;;;;5101065;28;20497;-42
2021/04/18 12:38:00;;;;;;;9.87;8.70;;;12.70;62.20;;;;;;5100725;28;20843;-42
2021/04/18 12:40:26;;;;;;;10.20;9.20;;;12.50;63.00;;;;;;5082812;28;20426;-42